Time;durP1;ratioP1;P1;durP2;ratioP2;P2;SDS_P1;SDS_P2;PMS_P1;PMS_P2;Temp;Humidity;BMP_temperature;BMP_pressure;BME280_temperature;BME280_humidity;BME280_pressure;Samples;Min_cycle;Max_cycle;Signal;HPM_P1;HPM_P2
2021/07/15 00:00:39;;;;;;;32.43;22.10;;;;;;;;;;1449455;40;20291;-81
2021/07/15 00:01:41;;;;;;;31.17;24.42;;;;;;;;;;1453979;40;20310;-81
2021/07/15 00:02:42;;;;;;;33.72;23.90;;;;;;;;;;1444794;40;20044;-81
2021/07/15 00:03:44;;;;;;;32.13;23.88;;;;;;;;;;1438660;41;20098;-84
2021/07/15 00:04:44;;;;;;;30.23;24.23;;;;;;;;;;1439202;41;20456;-80
2021/07/15 00:05:50;;;;;;;30.10;23.27;;;;;;;;;;1454100;40;20098;-81
2021/07/15 00:06:59;;;;;;;31.83;24.63;;;;;;;;;;1449407;40;20323;-80
2021/07/15 00:08:01;;;;;;;28.67;24.00;;;;;;;;;;1440590;40;20751;-81
2021/07/15 00:09:04;;;;;;;30.63;24.27;;;;;;;;;;1446832;40;20036;-81
2021/07/15 00:10:33;;;;;;;30.05;24.23;;;;;;;;;;1451193;40;20715;-81
2021/07/15 00:11:36;;;;;;;33.58;25.85;;;;;;;;;;1452731;40;20043;-81
2021/07/15 00:12:42;;;;;;;32.10;24.98;;;;;;;;;;1446129;40;20190;-80
2021/07/15 00:13:42;;;;;;;34.35;26.00;;;;;;;;;;1455095;40;20023;-80
2021/07/15 00:14:44;;;;;;;33.00;24.15;;;;;;;;;;1451693;40;20046;-82
2021/07/15 00:15:48;;;;;;;39.35;26.70;;;;;;;;;;1460598;40;20038;-81
2021/07/15 00:16:53;;;;;;;32.38;25.52;;;;;;;;;;1454010;40;20027;-80
2021/07/15 00:17:56;;;;;;;34.55;26.85;;;;;;;;;;1455264;40;20043;-80
2021/07/15 00:18:59;;;;;;;35.92;26.40;;;;;;;;;;1454315;40;20285;-80
2021/07/15 00:20:00;;;;;;;37.80;27.38;;;;;;;;;;1447612;40;20165;-80
2021/07/15 00:21:07;;;;;;;36.03;26.77;;;;;;;;;;1448132;40;20187;-85
2021/07/15 00:22:07;;;;;;;32.88;26.52;;;;;;;;;;1441552;41;20053;-77
2021/07/15 00:23:09;;;;;;;32.00;26.40;;;;;;;;;;1444521;41;20025;-83
2021/07/15 00:24:09;;;;;;;;;;;;;;;;;;1451408;40;20051;-80
2021/07/15 00:25:13;;;;;;;34.22;25.48;;;;;;;;;;1444714;41;19935;-81
2021/07/15 00:26:14;;;;;;;36.13;26.15;;;;;;;;;;1445748;40;20641;-80
2021/07/15 00:27:15;;;;;;;34.75;25.95;;;;;;;;;;1444272;41;21485;-81
2021/07/15 00:28:17;;;;;;;33.50;25.83;;;;;;;;;;1436355;41;20682;-81
2021/07/15 00:29:17;;;;;;;33.83;26.65;;;;;;;;;;1439275;41;20037;-80
2021/07/15 00:30:18;;;;;;;39.22;27.08;;;;;;;;;;1445579;40;20047;-82
2021/07/15 00:31:19;;;;;;;33.55;25.73;;;;;;;;;;1441026;41;20055;-81
2021/07/15 00:32:19;;;;;;;34.30;26.67;;;;;;;;;;1448281;40;20989;-80
2021/07/15 00:33:20;;;;;;;33.35;26.00;;;;;;;;;;1446555;41;20044;-80
2021/07/15 00:34:21;;;;;;;31.40;25.70;;;;;;;;;;1446771;41;20278;-81
2021/07/15 00:35:29;;;;;;;;;;;;;;;;;;1442403;41;20197;-82
2021/07/15 00:36:30;;;;;;;30.65;23.70;;;;;;;;;;1446111;40;20336;-81
2021/07/15 00:37:31;;;;;;;30.58;24.42;;;;;;;;;;1451609;40;20405;-80
2021/07/15 00:38:32;;;;;;;30.33;24.13;;;;;;;;;;1448947;40;20056;-81
2021/07/15 00:39:33;;;;;;;29.40;23.70;;;;;;;;;;1448387;40;20327;-82
2021/07/15 00:40:35;;;;;;;32.17;24.00;;;;;;;;;;1452447;40;20050;-81
2021/07/15 00:41:36;;;;;;;36.25;25.52;;;;;;;;;;1453196;40;20321;-80
2021/07/15 00:42:36;;;;;;;29.02;23.17;;;;;;;;;;1452785;40;20067;-81
2021/07/15 00:43:40;;;;;;;27.80;22.83;;;;;;;;;;1452284;40;20126;-80
2021/07/15 00:44:40;;;;;;;35.47;24.17;;;;;;;;;;1448931;40;20036;-83
2021/07/15 00:45:41;;;;;;;29.35;23.40;;;;;;;;;;1444572;41;20237;-81
2021/07/15 00:46:44;;;;;;;27.88;23.20;;;;;;;;;;1436162;41;20053;-80
2021/07/15 00:47:46;;;;;;;28.67;23.50;;;;;;;;;;1451114;40;20237;-81
2021/07/15 00:48:46;;;;;;;32.78;24.30;;;;;;;;;;1447531;40;20123;-81
2021/07/15 00:49:47;;;;;;;25.47;22.47;;;;;;;;;;1447860;40;20081;-81
2021/07/15 00:50:47;;;;;;;25.40;22.40;;;;;;;;;;1445396;40;20028;-81
2021/07/15 00:51:48;;;;;;;27.95;21.65;;;;;;;;;;1446419;40;20055;-81
2021/07/15 00:52:50;;;;;;;26.48;21.85;;;;;;;;;;1448160;40;20036;-80
2021/07/15 00:53:50;;;;;;;27.02;22.58;;;;;;;;;;1451307;40;20503;-80
2021/07/15 00:54:51;;;;;;;25.77;21.13;;;;;;;;;;1452790;40;20261;-80
2021/07/15 00:55:52;;;;;;;26.33;20.70;;;;;;;;;;1447595;40;20643;-81
2021/07/15 00:56:52;;;;;;;26.80;20.50;;;;;;;;;;1441823;40;20062;-78
2021/07/15 00:57:53;;;;;;;24.50;19.98;;;;;;;;;;1452886;40;20559;-80
2021/07/15 00:58:53;;;;;;;23.45;19.30;;;;;;;;;;1457640;40;20101;-78
2021/07/15 00:59:54;;;;;;;24.88;19.65;;;;;;;;;;1453897;40;20199;-79
2021/07/15 01:00:55;;;;;;;24.85;20.50;;;;;;;;;;1451462;40;20043;-82
2021/07/15 01:01:55;;;;;;;23.63;19.73;;;;;;;;;;1453223;40;20085;-79
2021/07/15 01:02:57;;;;;;;25.13;19.42;;;;;;;;;;1464394;40;20085;-79
2021/07/15 01:04:00;;;;;;;;;;;;;;;;;;1448838;40;20040;-79
2021/07/15 01:05:15;;;;;;;21.73;17.98;;;;;;;;;;1439592;41;19939;-80
2021/07/15 01:06:16;;;;;;;20.95;17.80;;;;;;;;;;1443583;41;20279;-81
2021/07/15 01:07:17;;;;;;;25.30;19.25;;;;;;;;;;1441787;40;20032;-81
2021/07/15 01:08:18;;;;;;;21.93;18.10;;;;;;;;;;1449926;40;20231;-79
2021/07/15 01:09:20;;;;;;;26.48;19.45;;;;;;;;;;1436231;41;20353;-79
2021/07/15 01:10:23;;;;;;;25.30;20.27;;;;;;;;;;1441631;41;20029;-80
2021/07/15 01:11:33;;;;;;;28.55;21.80;;;;;;;;;;1446892;40;20085;-80
2021/07/15 01:12:42;;;;;;;25.45;18.80;;;;;;;;;;1450990;40;20039;-83
2021/07/15 01:13:50;;;;;;;26.85;20.52;;;;;;;;;;1452940;40;20030;-82
2021/07/15 01:15:12;;;;;;;26.05;18.90;;;;;;;;;;1441313;40;20067;-79
2021/07/15 01:16:20;;;;;;;24.10;18.48;;;;;;;;;;1446765;40;21437;-81
2021/07/15 01:17:22;;;;;;;23.95;18.88;;;;;;;;;;1447107;40;20052;-81
2021/07/15 01:18:42;;;;;;;25.85;19.58;;;;;;;;;;1452312;40;20042;-80
2021/07/15 01:20:01;;;;;;;24.98;18.92;;;;;;;;;;1449320;40;20039;-80
2021/07/15 01:21:35;;;;;;;24.63;19.08;;;;;;;;;;1456917;40;20831;-80
2021/07/15 01:23:11;;;;;;;22.45;17.60;;;;;;;;;;1461463;40;20038;-80
2021/07/15 01:24:26;;;;;;;22.67;16.95;;;;;;;;;;1450045;40;20024;-80
2021/07/15 01:25:45;;;;;;;22.73;16.75;;;;;;;;;;1448481;40;20036;-79
2021/07/15 01:27:07;;;;;;;26.52;17.33;;;;;;;;;;1468806;40;20030;-83
2021/07/15 01:28:30;;;;;;;22.42;16.20;;;;;;;;;;1476035;40;20431;-81
2021/07/15 01:29:52;;;;;;;23.35;17.98;;;;;;;;;;1482028;40;20028;-80
2021/07/15 01:30:53;;;;;;;26.25;17.50;;;;;;;;;;1478745;40;20129;-80
2021/07/15 01:31:57;;;;;;;25.52;17.50;;;;;;;;;;1474048;40;20447;-82
2021/07/15 01:33:15;;;;;;;25.75;18.95;;;;;;;;;;1475145;40;20197;-82
2021/07/15 01:34:17;;;;;;;26.73;18.83;;;;;;;;;;1480762;40;20339;-81
2021/07/15 01:35:18;;;;;;;;;;;;;;;;;;1468675;40;20534;-80
2021/07/15 01:36:32;;;;;;;22.85;16.73;;;;;;;;;;1475109;40;19948;-81
2021/07/15 01:37:32;;;;;;;23.38;17.88;;;;;;;;;;1473499;40;20326;-80
2021/07/15 01:38:42;;;;;;;23.38;18.23;;;;;;;;;;1473486;40;20090;-80
2021/07/15 01:39:44;;;;;;;24.80;18.17;;;;;;;;;;1469914;40;20032;-80
2021/07/15 01:40:47;;;;;;;28.30;19.38;;;;;;;;;;1472464;40;20209;-81
2021/07/15 01:41:51;;;;;;;31.23;18.40;;;;;;;;;;1474450;40;20378;-82
2021/07/15 01:42:55;;;;;;;25.30;19.83;;;;;;;;;;1477360;39;20240;-80
2021/07/15 01:44:00;;;;;;;24.10;17.88;;;;;;;;;;1476318;40;20262;-81
2021/07/15 01:45:00;;;;;;;24.88;17.88;;;;;;;;;;1476233;40;20207;-80
2021/07/15 01:46:03;;;;;;;23.17;17.70;;;;;;;;;;1475250;40;20053;-80
2021/07/15 01:47:04;;;;;;;20.30;16.83;;;;;;;;;;1476581;40;20483;-80
2021/07/15 01:48:04;;;;;;;23.08;16.33;;;;;;;;;;1473447;40;20033;-81
2021/07/15 01:49:06;;;;;;;23.73;16.65;;;;;;;;;;1468649;40;20220;-80
2021/07/15 01:50:07;;;;;;;19.35;15.40;;;;;;;;;;1473450;40;20037;-80
2021/07/15 01:51:08;;;;;;;25.70;16.08;;;;;;;;;;1468929;40;20084;-80
2021/07/15 01:52:09;;;;;;;21.08;16.48;;;;;;;;;;1469028;40;20453;-80
2021/07/15 01:53:10;;;;;;;19.50;15.75;;;;;;;;;;1466070;40;20041;-81
2021/07/15 01:54:12;;;;;;;21.02;15.43;;;;;;;;;;1461556;40;20104;-80
2021/07/15 01:55:13;;;;;;;23.48;15.73;;;;;;;;;;1456206;40;21618;-80
2021/07/15 01:56:15;;;;;;;21.75;16.60;;;;;;;;;;1467841;40;20251;-80
2021/07/15 01:57:16;;;;;;;21.90;16.35;;;;;;;;;;1463681;40;20147;-80
2021/07/15 01:58:17;;;;;;;20.40;15.75;;;;;;;;;;1451364;40;20047;-81
2021/07/15 01:59:22;;;;;;;23.77;16.85;;;;;;;;;;1457532;40;20260;-81
2021/07/15 02:00:23;;;;;;;21.95;17.55;;;;;;;;;;1466200;40;20101;-81
2021/07/15 02:01:24;;;;;;;24.33;15.88;;;;;;;;;;1456504;40;20031;-80
2021/07/15 02:02:27;;;;;;;21.10;16.48;;;;;;;;;;1457233;40;20050;-81
2021/07/15 02:03:29;;;;;;;18.65;15.50;;;;;;;;;;1456946;40;20050;-81
2021/07/15 02:04:30;;;;;;;22.40;16.45;;;;;;;;;;1455281;40;20141;-80
2021/07/15 02:05:32;;;;;;;;;;;;;;;;;;1448861;40;20151;-79
2021/07/15 02:06:33;;;;;;;22.15;16.40;;;;;;;;;;1443846;41;20015;-80
2021/07/15 02:07:33;;;;;;;;;;;;;;;;;;1450366;40;20108;-81
2021/07/15 02:08:35;;;;;;;19.92;15.20;;;;;;;;;;1446569;40;19955;-80
2021/07/15 02:09:35;;;;;;;;;;;;;;;;;;1444316;40;20024;-80
2021/07/15 02:10:36;;;;;;;18.23;14.95;;;;;;;;;;1446624;40;19979;-80
2021/07/15 02:11:38;;;;;;;19.80;16.52;;;;;;;;;;1449001;40;20100;-80
2021/07/15 02:12:39;;;;;;;19.95;16.20;;;;;;;;;;1447922;40;20096;-81
2021/07/15 02:13:41;;;;;;;21.08;17.42;;;;;;;;;;1446906;41;20459;-80
2021/07/15 02:14:42;;;;;;;19.73;16.45;;;;;;;;;;1444681;41;20056;-81
2021/07/15 02:15:46;;;;;;;22.00;16.48;;;;;;;;;;1448276;40;20040;-80
2021/07/15 02:16:51;;;;;;;20.38;17.58;;;;;;;;;;1447918;40;20183;-80
2021/07/15 02:17:52;;;;;;;19.63;17.52;;;;;;;;;;1448012;41;20024;-80
2021/07/15 02:18:53;;;;;;;21.05;17.35;;;;;;;;;;1440808;41;20400;-80
2021/07/15 02:19:56;;;;;;;24.52;18.67;;;;;;;;;;1438414;41;20036;-80
2021/07/15 02:20:57;;;;;;;21.35;17.10;;;;;;;;;;1433852;41;20308;-81
2021/07/15 02:21:58;;;;;;;20.42;16.95;;;;;;;;;;1442088;41;20040;-79
2021/07/15 02:22:58;;;;;;;22.27;17.48;;;;;;;;;;1440424;41;20593;-80
2021/07/15 02:24:00;;;;;;;24.23;16.63;;;;;;;;;;1437147;41;20439;-80
2021/07/15 02:25:01;;;;;;;21.38;17.75;;;;;;;;;;1433332;41;20541;-80
2021/07/15 02:26:04;;;;;;;27.17;17.25;;;;;;;;;;1441616;41;20105;-80
2021/07/15 02:27:06;;;;;;;21.08;17.85;;;;;;;;;;1444632;40;20411;-80
2021/07/15 02:28:08;;;;;;;21.90;17.13;;;;;;;;;;1445687;41;20032;-81
2021/07/15 02:29:09;;;;;;;22.42;18.02;;;;;;;;;;1449176;40;20047;-81
2021/07/15 02:30:12;;;;;;;21.30;16.92;;;;;;;;;;1448641;40;20059;-80
2021/07/15 02:31:15;;;;;;;20.08;16.35;;;;;;;;;;1446990;41;20076;-80
2021/07/15 02:32:16;;;;;;;18.35;16.27;;;;;;;;;;1445179;40;20321;-80
2021/07/15 02:33:18;;;;;;;21.38;17.10;;;;;;;;;;1448664;40;20036;-80
2021/07/15 02:34:29;;;;;;;21.98;17.27;;;;;;;;;;1453461;40;20498;-80
2021/07/15 02:35:35;;;;;;;20.65;16.02;;;;;;;;;;1456051;40;20034;-81
2021/07/15 02:36:43;;;;;;;27.20;18.88;;;;;;;;;;1451977;40;20339;-80
2021/07/15 02:37:44;;;;;;;23.02;17.90;;;;;;;;;;1450644;40;20032;-80
2021/07/15 02:38:45;;;;;;;26.02;18.00;;;;;;;;;;1451776;40;20032;-81
2021/07/15 02:39:46;;;;;;;26.17;18.90;;;;;;;;;;1451709;40;20570;-85
2021/07/15 02:40:46;;;;;;;22.47;17.97;;;;;;;;;;1452402;40;20023;-80
2021/07/15 02:41:47;;;;;;;22.63;16.03;;;;;;;;;;1458048;40;20913;-80
2021/07/15 02:42:48;;;;;;;20.63;16.40;;;;;;;;;;1462194;40;20473;-81
2021/07/15 02:43:51;;;;;;;24.38;16.60;;;;;;;;;;1458470;40;20039;-80
2021/07/15 02:44:52;;;;;;;20.65;17.10;;;;;;;;;;1459631;40;20491;-80
2021/07/15 02:45:52;;;;;;;22.92;16.85;;;;;;;;;;1453926;40;20617;-80
2021/07/15 02:46:53;;;;;;;19.43;15.47;;;;;;;;;;1457652;40;20586;-80
2021/07/15 02:47:53;;;;;;;22.10;16.38;;;;;;;;;;1469699;40;20982;-80
2021/07/15 02:48:54;;;;;;;16.77;14.87;;;;;;;;;;1454557;40;20560;-79
2021/07/15 02:49:54;;;;;;;21.80;15.35;;;;;;;;;;1453516;40;20388;-80
2021/07/15 02:50:55;;;;;;;19.02;14.75;;;;;;;;;;1457678;40;20361;-80
2021/07/15 02:51:55;;;;;;;16.33;14.63;;;;;;;;;;1448441;40;20141;-81
2021/07/15 02:52:57;;;;;;;25.23;14.70;;;;;;;;;;1441346;41;20498;-80
2021/07/15 02:54:00;;;;;;;21.15;15.20;;;;;;;;;;1449659;40;20722;-81
2021/07/15 02:55:00;;;;;;;20.95;14.93;;;;;;;;;;1453094;40;20036;-81
2021/07/15 02:56:28;;;;;;;19.80;15.07;;;;;;;;;;1450125;40;20029;-80
2021/07/15 02:57:38;;;;;;;21.25;15.02;;;;;;;;;;1439512;41;20290;-82
2021/07/15 02:58:45;;;;;;;16.98;14.50;;;;;;;;;;1448105;40;20055;-80
2021/07/15 02:59:48;;;;;;;20.50;13.93;;;;;;;;;;1451911;40;20036;-81
2021/07/15 03:01:01;;;;;;;19.52;14.63;;;;;;;;;;1456039;40;20205;-80
2021/07/15 03:02:11;;;;;;;18.67;14.80;;;;;;;;;;1457948;40;20031;-81
2021/07/15 03:03:31;;;;;;;18.73;14.57;;;;;;;;;;1460058;40;20042;-81
2021/07/15 03:05:14;;;;;;;16.90;14.77;;;;;;;;;;1453981;40;20113;-81
2021/07/15 03:06:24;;;;;;;18.42;13.52;;;;;;;;;;1452440;40;20032;-80
2021/07/15 03:07:25;;;;;;;24.08;16.52;;;;;;;;;;1454324;40;20296;-80
2021/07/15 03:08:31;;;;;;;20.17;15.43;;;;;;;;;;1454322;40;20034;-80
2021/07/15 03:09:32;;;;;;;23.17;18.05;;;;;;;;;;1455621;40;20129;-80
2021/07/15 03:10:34;;;;;;;28.25;16.45;;;;;;;;;;1455450;40;20042;-81
2021/07/15 03:11:49;;;;;;;25.70;18.30;;;;;;;;;;1452075;40;20362;-81
2021/07/15 03:12:50;;;;;;;20.40;17.00;;;;;;;;;;1457997;40;20033;-80
2021/07/15 03:13:51;;;;;;;29.70;17.17;;;;;;;;;;1458968;40;20207;-79
2021/07/15 03:14:54;;;;;;;22.85;17.38;;;;;;;;;;1451473;40;20421;-78
2021/07/15 03:15:55;;;;;;;25.17;17.52;;;;;;;;;;1452369;40;20154;-82
2021/07/15 03:16:57;;;;;;;24.23;17.88;;;;;;;;;;1454841;40;20175;-80
2021/07/15 03:17:59;;;;;;;23.70;17.50;;;;;;;;;;1453821;40;20438;-79
2021/07/15 03:19:03;;;;;;;23.50;16.48;;;;;;;;;;1440604;41;20075;-80
2021/07/15 03:20:07;;;;;;;20.65;16.10;;;;;;;;;;1445841;41;20033;-80
2021/07/15 03:21:07;;;;;;;22.88;16.88;;;;;;;;;;1440287;41;20219;-80
2021/07/15 03:22:09;;;;;;;22.33;16.80;;;;;;;;;;1438490;41;20033;-80
2021/07/15 03:23:21;;;;;;;19.25;16.33;;;;;;;;;;1438168;41;20296;-80
2021/07/15 03:24:23;;;;;;;24.25;16.55;;;;;;;;;;1439414;41;20336;-78
2021/07/15 03:25:25;;;;;;;21.30;17.00;;;;;;;;;;1444403;41;20478;-79
2021/07/15 03:26:26;;;;;;;23.17;17.98;;;;;;;;;;1438270;41;20049;-82
2021/07/15 03:27:30;;;;;;;25.13;17.25;;;;;;;;;;1441895;41;20664;-79
2021/07/15 03:28:32;;;;;;;32.63;24.63;;;;;;;;;;1442947;41;20114;-80
2021/07/15 03:29:35;;;;;;;27.83;20.75;;;;;;;;;;1438649;41;20492;-79
2021/07/15 03:30:36;;;;;;;21.52;16.77;;;;;;;;;;1438588;41;20502;-80
2021/07/15 03:31:36;;;;;;;23.67;17.10;;;;;;;;;;1438847;41;20040;-81
2021/07/15 03:32:40;;;;;;;22.07;17.13;;;;;;;;;;1432917;41;20069;-80
2021/07/15 03:33:40;;;;;;;23.00;16.73;;;;;;;;;;1441547;41;20297;-78
2021/07/15 03:34:42;;;;;;;19.65;15.65;;;;;;;;;;1425582;41;20198;-81
2021/07/15 03:35:42;;;;;;;20.00;15.93;;;;;;;;;;1438336;41;20243;-84
2021/07/15 03:36:49;;;;;;;17.00;14.95;;;;;;;;;;1434666;41;20186;-80
2021/07/15 03:37:50;;;;;;;21.80;15.20;;;;;;;;;;1435617;41;20038;-80
2021/07/15 03:38:51;;;;;;;20.33;14.85;;;;;;;;;;1437034;41;20108;-80
2021/07/15 03:39:52;;;;;;;;;;;;;;;;;;1434820;41;20548;-80
2021/07/15 03:40:52;;;;;;;21.55;15.50;;;;;;;;;;1441619;41;19993;-79
2021/07/15 03:41:53;;;;;;;19.80;14.48;;;;;;;;;;1445134;41;20132;-79
2021/07/15 03:42:54;;;;;;;18.10;14.27;;;;;;;;;;1451133;40;20039;-80
2021/07/15 03:43:55;;;;;;;20.65;15.45;;;;;;;;;;1449870;40;20086;-80
2021/07/15 03:44:56;;;;;;;18.40;15.05;;;;;;;;;;1463536;40;20034;-77
2021/07/15 03:45:57;;;;;;;19.73;14.02;;;;;;;;;;1462964;40;21588;-80
2021/07/15 03:46:58;;;;;;;20.83;15.68;;;;;;;;;;1458751;40;20509;-80
2021/07/15 03:47:59;;;;;;;19.50;15.23;;;;;;;;;;1452986;40;20044;-73
2021/07/15 03:48:59;;;;;;;21.83;14.60;;;;;;;;;;1462344;40;20218;-82
2021/07/15 03:50:00;;;;;;;18.90;15.05;;;;;;;;;;1455833;40;20035;-80
2021/07/15 03:51:03;;;;;;;25.50;16.63;;;;;;;;;;1455464;40;20175;-80
2021/07/15 03:52:04;;;;;;;20.73;15.43;;;;;;;;;;1454900;40;20028;-81
2021/07/15 03:53:05;;;;;;;19.88;15.13;;;;;;;;;;1458317;40;20046;-79
2021/07/15 03:54:07;;;;;;;;;;;;;;;;;;1460262;40;20136;-80
2021/07/15 03:55:08;;;;;;;19.52;14.30;;;;;;;;;;1459221;40;19952;-77
2021/07/15 03:56:10;;;;;;;17.83;15.23;;;;;;;;;;1464615;40;21391;-81
2021/07/15 03:57:12;;;;;;;18.40;15.75;;;;;;;;;;1459823;40;20027;-80
2021/07/15 03:58:12;;;;;;;;;;;;;;;;;;1461566;40;20039;-80
2021/07/15 03:59:13;;;;;;;20.13;14.48;;;;;;;;;;1469354;40;20425;-80
2021/07/15 04:00:14;;;;;;;;;;;;;;;;;;1468566;40;20066;-79
2021/07/15 04:01:15;;;;;;;17.92;14.20;;;;;;;;;;1462999;40;20089;-80
2021/07/15 04:02:19;;;;;;;19.85;15.98;;;;;;;;;;1464791;40;20034;-81
2021/07/15 04:03:20;;;;;;;27.00;15.77;;;;;;;;;;1463298;40;20027;-80
2021/07/15 04:04:21;;;;;;;20.05;15.10;;;;;;;;;;1452920;40;20242;-80
2021/07/15 04:05:23;;;;;;;23.40;15.50;;;;;;;;;;1450801;40;20100;-80
2021/07/15 04:06:23;;;;;;;;;;;;;;;;;;1455595;40;20047;-79
2021/07/15 04:07:28;;;;;;;22.13;14.82;;;;;;;;;;1454621;40;20250;-80
2021/07/15 04:08:32;;;;;;;24.60;15.00;;;;;;;;;;1458702;40;20394;-79
2021/07/15 04:09:34;;;;;;;26.17;15.68;;;;;;;;;;1458431;40;20175;-80
2021/07/15 04:10:38;;;;;;;24.50;15.70;;;;;;;;;;1460169;40;20145;-77
2021/07/15 04:11:42;;;;;;;19.10;15.48;;;;;;;;;;1466587;40;20034;-81
2021/07/15 04:12:47;;;;;;;21.05;16.23;;;;;;;;;;1459839;40;20078;-81
2021/07/15 04:13:47;;;;;;;20.40;15.18;;;;;;;;;;1460759;40;20026;-80
2021/07/15 04:14:48;;;;;;;17.35;13.82;;;;;;;;;;1457027;40;20043;-81
2021/07/15 04:15:51;;;;;;;20.02;14.80;;;;;;;;;;1452614;40;20059;-81
2021/07/15 04:17:06;;;;;;;19.42;15.07;;;;;;;;;;1461351;40;20428;-80
2021/07/15 04:18:07;;;;;;;17.50;14.75;;;;;;;;;;1455268;40;20532;-80
2021/07/15 04:19:08;;;;;;;24.58;16.80;;;;;;;;;;1452944;40;20088;-80
2021/07/15 04:20:11;;;;;;;20.73;16.15;;;;;;;;;;1457670;40;20035;-80
2021/07/15 04:21:31;;;;;;;23.45;16.45;;;;;;;;;;1457680;40;20085;-81
2021/07/15 04:22:34;;;;;;;21.90;17.15;;;;;;;;;;1453130;40;20051;-80
2021/07/15 04:23:36;;;;;;;23.40;16.40;;;;;;;;;;1457622;40;20263;-81
2021/07/15 04:24:38;;;;;;;21.42;16.40;;;;;;;;;;1456700;40;20031;-80
2021/07/15 04:25:39;;;;;;;21.35;16.63;;;;;;;;;;1449542;40;20028;-80
2021/07/15 04:26:42;;;;;;;23.65;16.63;;;;;;;;;;1446539;40;20076;-81
2021/07/15 04:27:44;;;;;;;20.73;16.20;;;;;;;;;;1451312;40;20039;-81
2021/07/15 04:28:45;;;;;;;22.48;16.45;;;;;;;;;;1453309;40;20031;-80
2021/07/15 04:29:46;;;;;;;21.63;15.63;;;;;;;;;;1453647;40;20071;-82
2021/07/15 04:30:48;;;;;;;19.70;14.65;;;;;;;;;;1457325;40;20043;-81
2021/07/15 04:32:19;;;;;;;19.40;15.30;;;;;;;;;;1454483;40;20244;-80
2021/07/15 04:33:20;;;;;;;19.10;12.20;;;;;;;;;;1458609;40;20156;-80
2021/07/15 04:34:22;;;;;;;14.75;12.93;;;;;;;;;;1454160;40;20535;-81
2021/07/15 04:35:22;;;;;;;22.73;12.80;;;;;;;;;;1443527;41;20131;-82
2021/07/15 04:36:24;;;;;;;14.82;12.20;;;;;;;;;;1450527;40;20236;-80
2021/07/15 04:37:31;;;;;;;16.55;12.10;;;;;;;;;;1446292;40;20967;-81
2021/07/15 04:38:39;;;;;;;15.90;10.82;;;;;;;;;;1447213;40;20051;-85
2021/07/15 04:39:40;;;;;;;23.80;12.35;;;;;;;;;;1443174;41;20478;-81
2021/07/15 04:40:40;;;;;;;17.65;12.75;;;;;;;;;;1439932;41;20025;-81
2021/07/15 04:41:43;;;;;;;19.02;14.80;;;;;;;;;;1437960;41;20120;-81
2021/07/15 04:42:44;;;;;;;17.17;13.02;;;;;;;;;;1440548;41;20040;-80
2021/07/15 04:43:45;;;;;;;18.80;14.90;;;;;;;;;;1442112;41;20514;-80
2021/07/15 04:44:46;;;;;;;16.40;13.02;;;;;;;;;;1442641;41;20106;-80
2021/07/15 04:45:47;;;;;;;19.13;14.85;;;;;;;;;;1444844;40;20028;-80
2021/07/15 04:46:50;;;;;;;17.30;13.57;;;;;;;;;;1446332;41;20040;-81
2021/07/15 04:47:52;;;;;;;21.75;13.98;;;;;;;;;;1442149;41;21766;-80
2021/07/15 04:48:56;;;;;;;19.75;14.05;;;;;;;;;;1439395;41;20409;-81
2021/07/15 04:49:58;;;;;;;19.42;14.40;;;;;;;;;;1435578;41;20433;-80
2021/07/15 04:50:58;;;;;;;;;;;;;;;;;;1441150;41;21399;-80
2021/07/15 04:52:01;;;;;;;19.45;13.80;;;;;;;;;;1439544;41;20352;-79
2021/07/15 04:53:04;;;;;;;18.33;13.93;;;;;;;;;;1442641;41;20039;-80
2021/07/15 04:54:05;;;;;;;18.02;13.13;;;;;;;;;;1446048;41;20025;-80
2021/07/15 04:55:06;;;;;;;21.73;12.60;;;;;;;;;;1441743;41;20041;-80
2021/07/15 04:56:07;;;;;;;17.35;12.52;;;;;;;;;;1447556;41;20044;-81
2021/07/15 04:57:10;;;;;;;16.25;11.35;;;;;;;;;;1447750;40;20040;-81
2021/07/15 04:58:10;;;;;;;14.80;11.32;;;;;;;;;;1441789;41;21824;-80
2021/07/15 04:59:12;;;;;;;13.93;10.90;;;;;;;;;;1439371;41;20063;-80
2021/07/15 05:00:13;;;;;;;14.93;10.63;;;;;;;;;;1441480;41;20045;-81
2021/07/15 05:01:14;;;;;;;13.20;10.75;;;;;;;;;;1442416;41;20373;-80
2021/07/15 05:02:14;;;;;;;16.45;11.18;;;;;;;;;;1442264;41;20063;-79
2021/07/15 05:03:35;;;;;;;12.80;10.65;;;;;;;;;;1440105;41;20085;-84
2021/07/15 05:04:35;;;;;;;16.23;11.10;;;;;;;;;;1442435;41;20033;-80
2021/07/15 05:05:36;;;;;;;12.45;10.40;;;;;;;;;;1442902;41;20045;-81
2021/07/15 05:06:36;;;;;;;10.88;8.85;;;;;;;;;;1445907;40;20039;-80
2021/07/15 05:07:38;;;;;;;11.88;7.10;;;;;;;;;;1437728;41;20059;-81
2021/07/15 05:08:39;;;;;;;;;;;;;;;;;;1438372;41;21236;-81
2021/07/15 05:09:40;;;;;;;6.80;5.60;;;;;;;;;;1441750;41;19936;-80
2021/07/15 05:10:42;;;;;;;11.47;5.30;;;;;;;;;;1447060;40;20068;-80
2021/07/15 05:11:43;;;;;;;7.43;5.30;;;;;;;;;;1468532;40;20112;-80
2021/07/15 05:12:43;;;;;;;10.20;5.15;;;;;;;;;;1469447;40;20176;-80
2021/07/15 05:13:44;;;;;;;6.03;5.18;;;;;;;;;;1464733;40;20034;-80
2021/07/15 05:14:45;;;;;;;4.22;3.80;;;;;;;;;;1465769;40;20149;-80
2021/07/15 05:15:46;;;;;;;6.20;3.92;;;;;;;;;;1461363;40;20522;-80
2021/07/15 05:16:47;;;;;;;5.40;3.40;;;;;;;;;;1456019;40;20035;-79
2021/07/15 05:17:47;;;;;;;6.33;4.10;;;;;;;;;;1460918;40;20046;-80
2021/07/15 05:18:48;;;;;;;4.97;3.97;;;;;;;;;;1458208;40;20386;-80
2021/07/15 05:19:51;;;;;;;4.40;3.87;;;;;;;;;;1462329;40;20274;-80
2021/07/15 05:20:51;;;;;;;5.90;3.70;;;;;;;;;;1461078;40;20265;-81
2021/07/15 05:21:52;;;;;;;6.60;3.85;;;;;;;;;;1461630;40;20168;-80
2021/07/15 05:22:52;;;;;;;7.15;4.43;;;;;;;;;;1462538;40;20539;-80
2021/07/15 05:23:53;;;;;;;5.83;4.20;;;;;;;;;;1455638;40;21081;-81
2021/07/15 05:24:53;;;;;;;5.80;3.93;;;;;;;;;;1447328;40;20961;-80
2021/07/15 05:25:57;;;;;;;4.17;3.70;;;;;;;;;;1450037;40;20763;-81
2021/07/15 05:26:57;;;;;;;6.28;4.10;;;;;;;;;;1455673;40;20291;-80
2021/07/15 05:28:01;;;;;;;7.18;4.07;;;;;;;;;;1452601;40;20046;-81
2021/07/15 05:29:02;;;;;;;8.20;3.83;;;;;;;;;;1449938;41;20051;-82
2021/07/15 05:30:05;;;;;;;5.22;3.83;;;;;;;;;;1447744;40;20036;-82
2021/07/15 05:31:05;;;;;;;6.05;3.97;;;;;;;;;;1447330;40;20048;-80
2021/07/15 05:32:06;;;;;;;4.20;3.50;;;;;;;;;;1447077;41;20044;-81
2021/07/15 05:33:07;;;;;;;4.90;3.47;;;;;;;;;;1446201;40;20062;-81
2021/07/15 05:34:07;;;;;;;4.30;3.85;;;;;;;;;;1445235;40;20035;-80
2021/07/15 05:35:08;;;;;;;4.82;3.88;;;;;;;;;;1442185;41;20044;-80
2021/07/15 05:36:10;;;;;;;5.75;3.60;;;;;;;;;;1438565;41;20066;-80
2021/07/15 05:37:11;;;;;;;7.47;3.63;;;;;;;;;;1445363;40;20089;-79
2021/07/15 05:38:18;;;;;;;5.63;3.85;;;;;;;;;;1444816;40;20044;-80
2021/07/15 05:39:25;;;;;;;5.85;3.88;;;;;;;;;;1447806;40;20059;-82
2021/07/15 05:40:26;;;;;;;5.65;3.70;;;;;;;;;;1447226;40;20249;-81
2021/07/15 05:41:26;;;;;;;5.00;3.50;;;;;;;;;;1450431;40;20052;-81
2021/07/15 05:42:27;;;;;;;6.70;3.47;;;;;;;;;;1450363;40;20092;-80
2021/07/15 05:43:27;;;;;;;3.90;3.50;;;;;;;;;;1450484;41;20040;-82
2021/07/15 05:44:28;;;;;;;6.28;3.38;;;;;;;;;;1452517;40;20035;-80
2021/07/15 05:45:29;;;;;;;5.03;3.60;;;;;;;;;;1445726;40;20540;-80
2021/07/15 05:46:29;;;;;;;4.45;3.13;;;;;;;;;;1453138;40;20047;-80
2021/07/15 05:47:30;;;;;;;5.22;3.22;;;;;;;;;;1457874;40;20087;-80
2021/07/15 05:48:30;;;;;;;4.35;3.20;;;;;;;;;;1458109;40;20043;-80
2021/07/15 05:49:31;;;;;;;4.00;3.13;;;;;;;;;;1461977;40;20209;-80
2021/07/15 05:50:31;;;;;;;5.10;3.22;;;;;;;;;;1462390;40;20039;-83
2021/07/15 05:51:31;;;;;;;3.75;3.30;;;;;;;;;;1457687;40;20043;-80
2021/07/15 05:52:32;;;;;;;5.57;3.37;;;;;;;;;;1464742;40;20034;-80
2021/07/15 05:53:33;;;;;;;3.50;2.88;;;;;;;;;;1455679;40;20038;-81
2021/07/15 05:54:34;;;;;;;6.85;3.60;;;;;;;;;;1456525;40;20555;-81
2021/07/15 05:55:34;;;;;;;4.07;3.45;;;;;;;;;;1461630;40;20050;-80
2021/07/15 05:56:35;;;;;;;6.23;3.03;;;;;;;;;;1458318;40;20100;-80
2021/07/15 05:57:35;;;;;;;5.47;3.33;;;;;;;;;;1461088;40;20305;-81
2021/07/15 05:58:36;;;;;;;5.80;3.17;;;;;;;;;;1465650;40;20596;-80
2021/07/15 05:59:39;;;;;;;4.90;3.50;;;;;;;;;;1461687;40;20289;-82
2021/07/15 06:00:39;;;;;;;4.18;3.75;;;;;;;;;;1461668;40;20045;-80
2021/07/15 06:01:40;;;;;;;5.33;3.43;;;;;;;;;;1468485;40;20324;-80
2021/07/15 06:02:40;;;;;;;4.13;3.33;;;;;;;;;;1475545;40;20276;-79
2021/07/15 06:03:41;;;;;;;7.05;3.75;;;;;;;;;;1469700;40;20293;-80
2021/07/15 06:04:41;;;;;;;6.63;3.45;;;;;;;;;;1470722;40;20247;-80
2021/07/15 06:05:42;;;;;;;4.57;3.53;;;;;;;;;;1473284;40;20041;-80
2021/07/15 06:06:42;;;;;;;11.90;4.35;;;;;;;;;;1471083;40;20041;-80
2021/07/15 06:07:43;;;;;;;4.83;3.77;;;;;;;;;;1460273;40;20038;-81
2021/07/15 06:08:43;;;;;;;4.63;4.10;;;;;;;;;;1452048;40;20310;-80
2021/07/15 06:09:44;;;;;;;6.87;4.30;;;;;;;;;;1460997;40;20458;-81
2021/07/15 06:10:44;;;;;;;5.10;4.13;;;;;;;;;;1459498;40;20266;-81
2021/07/15 06:11:45;;;;;;;6.13;4.40;;;;;;;;;;1459059;40;20094;-80